createdAt,value
2018-11-07T00:00:23.670Z,5.42
2018-11-07T00:05:26.784Z,5.40
2018-11-07T00:10:29.892Z,6.10
2018-11-07T00:15:33.005Z,7.17
2018-11-07T00:20:36.108Z,5.83
2018-11-07T00:25:39.218Z,7.40
2018-11-07T00:30:42.331Z,4.93
2018-11-07T00:35:45.450Z,5.47
2018-11-07T00:40:48.552Z,6.50
2018-11-07T00:45:51.664Z,5.67
2018-11-07T00:50:54.773Z,5.70
2018-11-07T00:55:57.881Z,6.57
2018-11-07T01:01:00.979Z,6.87
2018-11-07T01:06:04.095Z,5.00
2018-11-07T01:11:07.277Z,5.77
2018-11-07T01:16:10.364Z,5.27
2018-11-07T01:21:13.467Z,5.78
2018-11-07T01:26:16.566Z,7.97
2018-11-07T01:31:19.704Z,5.95
2018-11-07T01:36:22.805Z,5.43
2018-11-07T01:41:25.932Z,5.63
2018-11-07T01:46:29.028Z,5.50
2018-11-07T01:51:32.131Z,6.43
2018-11-07T01:56:35.228Z,6.27
2018-11-07T02:01:38.332Z,5.10
2018-11-07T02:06:41.432Z,4.50
2018-11-07T02:11:44.531Z,6.60
2018-11-07T02:16:47.689Z,5.17
2018-11-07T02:21:50.737Z,7.47
2018-11-07T02:26:53.836Z,6.40
2018-11-07T02:31:56.969Z,6.33
2018-11-07T02:37:00.355Z,5.80
2018-11-07T02:42:03.490Z,6.17
2018-11-07T02:47:06.520Z,5.33
2018-11-07T02:52:09.628Z,5.50
2018-11-07T02:57:12.728Z,5.10
2018-11-07T03:02:15.833Z,4.30
2018-11-07T03:07:18.933Z,5.40
2018-11-07T03:12:22.040Z,6.87
2018-11-07T03:17:25.165Z,5.40
2018-11-07T03:22:28.284Z,4.87
2018-11-07T03:27:31.384Z,5.93
2018-11-07T03:32:34.484Z,5.50
2018-11-07T03:37:37.588Z,5.50
2018-11-07T03:42:40.728Z,5.50
2018-11-07T03:47:43.912Z,5.12
2018-11-07T03:52:47.012Z,5.13
2018-11-07T03:57:50.108Z,6.07
2018-11-07T04:02:53.209Z,5.20
2018-11-07T04:07:56.312Z,4.93
2018-11-07T04:12:59.417Z,4.93
2018-11-07T04:18:02.516Z,4.13
2018-11-07T04:23:05.791Z,5.37
2018-11-07T04:28:08.888Z,6.37
2018-11-07T04:33:12.144Z,5.50
2018-11-07T04:38:15.248Z,4.90
2018-11-07T04:43:18.379Z,5.35
2018-11-07T04:48:21.477Z,4.50
2018-11-07T04:53:24.585Z,4.33
2018-11-07T04:58:27.693Z,4.73
2018-11-07T05:03:30.821Z,4.22
2018-11-07T05:08:33.984Z,4.03
2018-11-07T05:13:37.365Z,5.00
2018-11-07T05:18:40.480Z,5.05
2018-11-07T05:23:43.588Z,4.70
2018-11-07T05:28:46.795Z,5.17
2018-11-07T05:33:49.896Z,4.00
2018-11-07T05:38:52.992Z,3.90
2018-11-07T05:43:56.094Z,5.37
2018-11-07T05:48:59.354Z,4.33
2018-11-07T05:54:02.378Z,4.40
2018-11-07T05:59:05.783Z,3.77
2018-11-07T06:04:09.077Z,5.30
2018-11-07T06:09:12.277Z,4.70
2018-11-07T06:14:15.376Z,4.22
2018-11-07T06:19:18.481Z,3.98
2018-11-07T06:24:21.626Z,4.77
2018-11-07T06:29:24.680Z,3.43
2018-11-07T06:34:28.054Z,4.90
2018-11-07T06:39:31.152Z,5.63
2018-11-07T06:44:34.317Z,4.13
2018-11-07T06:49:37.356Z,4.60
2018-11-07T06:54:40.457Z,5.40
2018-11-07T06:59:43.556Z,4.70
2018-11-07T07:04:46.680Z,5.10
2018-11-07T07:09:49.784Z,4.67
2018-11-07T07:14:52.892Z,4.90
2018-11-07T07:19:56.000Z,4.50
2018-11-07T07:24:59.121Z,5.60
2018-11-07T07:30:02.278Z,3.80
2018-11-07T07:35:05.832Z,4.40
2018-11-07T07:40:11.240Z,3.93
2018-11-07T07:45:15.736Z,4.87
2018-11-07T07:50:19.463Z,5.75
2018-11-07T07:55:22.561Z,6.27
2018-11-07T08:00:25.685Z,6.53
2018-11-07T08:05:28.797Z,6.73
2018-11-07T08:10:31.897Z,8.57
2018-11-07T08:15:35.020Z,10.77
2018-11-07T08:20:38.313Z,8.10
2018-11-07T08:25:41.409Z,6.55
2018-11-07T08:30:44.543Z,5.80
2018-11-07T08:35:47.625Z,7.13
2018-11-07T08:40:50.725Z,8.20
2018-11-07T08:45:53.913Z,7.63
2018-11-07T08:50:57.008Z,7.90
2018-11-07T08:56:00.113Z,8.03
2018-11-07T09:01:03.230Z,6.77
2018-11-07T09:06:06.594Z,7.10
2018-11-07T09:11:09.700Z,7.97
2018-11-07T09:16:12.800Z,6.10
2018-11-07T09:21:15.910Z,6.42
2018-11-07T09:26:19.028Z,6.87
2018-11-07T09:31:22.129Z,8.87
2018-11-07T09:36:25.224Z,8.70
2018-11-07T09:41:28.328Z,12.17
2018-11-07T09:46:31.440Z,9.10
2018-11-07T09:51:34.543Z,8.73
2018-11-07T09:56:37.696Z,9.97
2018-11-07T10:01:40.800Z,10.90
2018-11-07T10:06:43.986Z,7.80
2018-11-07T10:11:47.021Z,9.40
2018-11-07T10:16:50.128Z,9.60
2018-11-07T10:21:53.240Z,14.77
2018-11-07T10:26:56.443Z,9.70
2018-11-07T10:31:59.493Z,10.23
2018-11-07T10:37:02.578Z,9.57
2018-11-07T10:42:05.720Z,7.12
2018-11-07T10:47:08.832Z,8.40
2018-11-07T10:52:11.945Z,10.98
2018-11-07T10:57:15.209Z,8.70
2018-11-07T11:02:23.645Z,8.83
2018-11-07T11:07:27.768Z,9.40
2018-11-07T11:12:30.888Z,8.67
2018-11-07T11:17:34.005Z,8.13
2018-11-07T11:22:37.368Z,9.67
2018-11-07T11:27:40.480Z,10.60
2018-11-07T11:32:43.602Z,9.30
2018-11-07T11:37:46.731Z,11.68
2018-11-07T11:42:49.837Z,10.57
2018-11-07T11:47:52.947Z,10.27
2018-11-07T11:52:56.068Z,8.53
2018-11-07T11:57:59.164Z,7.87
2018-11-07T12:03:02.277Z,9.77
2018-11-07T12:08:05.553Z,9.23
2018-11-07T12:13:08.657Z,8.60
2018-11-07T12:18:11.753Z,9.17
2018-11-07T12:23:14.880Z,7.58
2018-11-07T12:28:17.988Z,9.28
2018-11-07T12:33:21.101Z,8.40
2018-11-07T12:38:24.216Z,8.67
2018-11-07T12:43:27.342Z,8.53
2018-11-07T12:48:30.440Z,9.43
2018-11-07T12:53:33.568Z,10.47
2018-11-07T12:58:36.669Z,9.10
2018-11-07T13:03:39.897Z,6.87
2018-11-07T13:08:43.004Z,9.73
2018-11-07T13:13:46.144Z,7.50
2018-11-07T13:18:49.580Z,9.57
2018-11-07T13:23:52.673Z,8.63
2018-11-07T13:28:55.778Z,9.33
2018-11-07T13:33:58.893Z,11.00
2018-11-07T13:39:02.463Z,10.43
2018-11-07T13:44:05.713Z,8.60
2018-11-07T13:49:08.837Z,8.97
2018-11-07T13:54:11.993Z,8.80
2018-11-07T13:59:15.111Z,8.70
2018-11-07T14:04:18.236Z,8.97
2018-11-07T14:09:21.354Z,9.13
2018-11-07T14:14:24.504Z,9.90
2018-11-07T14:19:27.608Z,7.73
2018-11-07T14:24:30.721Z,9.10
2018-11-07T14:29:33.816Z,8.50
2018-11-07T14:34:37.176Z,8.80
2018-11-07T14:39:40.276Z,7.53
2018-11-07T14:44:43.394Z,10.00
2018-11-07T14:49:46.757Z,7.30
2018-11-07T14:54:49.901Z,7.77
2018-11-07T14:59:53.005Z,7.00
2018-11-07T15:04:56.116Z,7.93
2018-11-07T15:09:59.264Z,8.50
2018-11-07T15:15:02.464Z,7.07
2018-11-07T15:20:06.393Z,7.60
2018-11-07T15:25:10.479Z,7.97
2018-11-07T15:30:14.468Z,7.40
2018-11-07T15:35:17.591Z,8.00
2018-11-07T15:40:20.692Z,8.00
2018-11-07T15:45:23.800Z,8.43
2018-11-07T15:50:32.092Z,7.10
2018-11-07T15:55:35.199Z,7.17
2018-11-07T16:00:38.318Z,7.55
2018-11-07T16:05:41.426Z,7.67
2018-11-07T16:10:44.853Z,7.67
2018-11-07T16:15:48.063Z,9.47
2018-11-07T16:20:51.472Z,8.37
2018-11-07T16:25:54.777Z,7.53
2018-11-07T16:30:57.849Z,8.07
2018-11-07T16:36:00.964Z,7.40
2018-11-07T16:41:04.178Z,6.47
2018-11-07T16:46:07.265Z,7.73
2018-11-07T16:51:10.373Z,6.83
2018-11-07T16:56:13.497Z,9.05
2018-11-07T17:01:17.152Z,7.93
2018-11-07T17:06:20.652Z,7.85
2018-11-07T17:11:23.764Z,7.30
2018-11-07T17:16:26.872Z,9.40
2018-11-07T17:21:30.301Z,8.43
2018-11-07T17:26:33.419Z,8.17
2018-11-07T17:31:36.568Z,8.20
2018-11-07T17:36:39.628Z,8.45
2018-11-07T17:41:42.856Z,7.80
2018-11-07T17:46:45.980Z,8.67
2018-11-07T17:51:49.187Z,8.13
2018-11-07T17:56:52.635Z,9.13
2018-11-07T18:01:56.388Z,7.60
2018-11-07T18:06:59.911Z,8.63
2018-11-07T18:12:03.068Z,7.00
2018-11-07T18:17:06.177Z,7.40
2018-11-07T18:22:09.483Z,8.00
2018-11-07T18:27:12.708Z,6.85
2018-11-07T18:32:15.889Z,7.00
2018-11-07T18:37:18.940Z,7.33
2018-11-07T18:42:22.052Z,8.03
2018-11-07T18:47:25.202Z,7.70
2018-11-07T18:52:28.348Z,7.27
2018-11-07T18:57:31.472Z,8.03
2018-11-07T19:02:34.581Z,7.10
2018-11-07T19:07:37.983Z,9.57
2018-11-07T19:12:41.157Z,7.77
2018-11-07T19:17:45.096Z,10.00
2018-11-07T19:22:48.269Z,9.73
2018-11-07T19:27:51.376Z,7.90
2018-11-07T19:32:54.553Z,8.87
2018-11-07T19:37:57.684Z,8.87
2018-11-07T19:43:00.797Z,8.37
2018-11-07T19:48:03.976Z,7.87
2018-11-07T19:53:07.093Z,9.50
2018-11-07T19:58:10.200Z,8.00
2018-11-07T20:03:13.332Z,8.03
2018-11-07T20:08:16.449Z,8.77
2018-11-07T20:13:19.619Z,7.20
2018-11-07T20:18:22.724Z,8.97
2018-11-07T20:23:25.896Z,10.03
2018-11-07T20:28:28.938Z,9.00
2018-11-07T20:33:32.050Z,8.97
2018-11-07T20:38:35.169Z,9.97
2018-11-07T20:43:38.307Z,10.37
2018-11-07T20:48:41.657Z,12.00
2018-11-07T20:53:44.713Z,8.20
2018-11-07T20:58:47.825Z,11.07
2018-11-07T21:03:50.934Z,7.43
2018-11-07T21:08:54.032Z,8.60
2018-11-07T21:13:57.143Z,10.40
2018-11-07T21:19:00.256Z,9.93
2018-11-07T21:24:03.416Z,10.97
2018-11-07T21:29:06.544Z,9.57
2018-11-07T21:34:09.675Z,9.83
2018-11-07T21:39:13.639Z,8.83
2018-11-07T21:44:16.751Z,9.17
2018-11-07T21:49:19.866Z,11.08
2018-11-07T21:54:22.983Z,8.90
2018-11-07T21:59:26.100Z,11.20
2018-11-07T22:04:29.248Z,10.47
2018-11-07T22:09:32.367Z,9.00
2018-11-07T22:14:35.476Z,9.77
2018-11-07T22:19:38.597Z,10.37
2018-11-07T22:24:41.729Z,9.30
2018-11-07T22:29:44.836Z,8.80
2018-11-07T22:34:47.948Z,11.07
2018-11-07T22:39:51.119Z,7.70
2018-11-07T22:44:54.328Z,7.47
2018-11-07T22:49:57.433Z,8.40
2018-11-07T22:55:00.629Z,7.73
2018-11-07T23:00:05.037Z,7.27
2018-11-07T23:05:08.233Z,6.20
2018-11-07T23:10:11.352Z,7.97
2018-11-07T23:15:18.751Z,6.60
2018-11-07T23:20:22.172Z,6.93
2018-11-07T23:25:25.256Z,8.13
2018-11-07T23:30:28.386Z,7.37
2018-11-07T23:35:31.825Z,7.43
2018-11-07T23:40:35.553Z,6.27
2018-11-07T23:45:38.936Z,7.37
2018-11-07T23:50:42.640Z,7.70
2018-11-07T23:55:45.771Z,7.40
